Historyczne dane pomiarowe

Dodano dane terminowe – wersja testowa.

Dane z okresu 1951-2019

Wersja bazy: 1.34 [2019-03-16, lista zmian], aktualizacja planowana na 2019-04-15

Dane meteo z obszaru Polski uzyskane na podstawie danych udostępnionych przez Instytut Meteorologii i Gospodarki Wodnej – Państwowy Instytut Badawczy.

 

Wybierz Datę:    

       

TemperaturaWilgotnośćWiatrCiśnienieOpadyŚniegCzas trwania zjawisk
 Stacja t tx tn tng RH VA  wxwx mslp ppp RRR   cm mm wxwxwxwxwxwxwx
1956-10-11 3.5 12.1 -1.3 -6.1 83.0- 2.3 1.3---- 0.0------------
1956-10-12 8.4 15.4 1.4 -3.9 77.8- 4.0 1.7---- 0.0------------
1956-10-13 8.6 12.5 4.1 -2.0 78.3- 7.0 3.0---- 0.0------------
1956-10-14 8.7 12.9 5.7 4.7 87.5- 7.0 3.3---- 3.6------------
1956-10-15 4.9 11.0 1.9 -1.7 90.3- 3.3 0.7---- 0.0------------
1956-10-16 4.2 13.3 -0.7 -5.1 89.3- 2.7 0.7---- 0.0------------
1956-10-17 7.5 16.6 -1.2 -4.9 80.3- 0.0 1.7---- 0.0------------
1956-10-18 9.8 14.1 5.0 -0.8 86.3- 7.7 2.0---- 8.1------------
1956-10-19 12.2 15.0 9.1 7.7 87.8- 8.0 1.3---- 4.8------------
1956-10-20 12.5 16.1 9.3 7.1 93.8- 7.7 0.7---- 0.0------------
1956-10-21 11.7 18.9 7.8 3.4 88.8- 3.7 0.3---- 0.0------------
1956-10-22 11.4 20.8 5.0 1.5 84.3- 0.0 0.7---- 0.0------------
1956-10-23 9.3 17.5 3.9 -0.1 87.5- 3.7 0.0---- 0.0------------
1956-10-24 9.5 18.2 3.8 -0.7 86.0- 3.3 2.0---- 0.0------------
1956-10-25 9.6 15.3 5.8 2.1 86.5- 2.0 3.0---- 1.2------------
1956-10-26 7.6 8.7 5.2 1.8 95.5- 8.0 1.0---- 5.4------------
1956-10-27 8.4 13.0 6.3 5.8 95.8- 7.7 0.7---- 3.0------------
1956-10-28 5.4 8.2 4.3 2.5 90.5- 8.0 3.0---- 19.6------------
1956-10-29 3.7 5.0 3.5 2.7 88.8- 8.0 2.0---- 6.7------------
1956-10-30 5.7 7.5 3.4 3.0 82.0- 8.0 1.3---- 0.6------------
1956-10-31 -2.3 6.0 -4.0 -0.6 75.8- 5.0 3.3---- 0.0------------
1956-11-01 -2.7 5.3 -8.0-12.7 83.0- 0.0 0.7---- 0.0------------
1956-11-02 -0.4 3.5 -5.2-10.4 86.8- 5.0 2.0---- 0.2------------
1956-11-03 0.0 4.4 -3.1 -4.1 81.5- 6.3 1.7---- 0.0------------
1956-11-04 1.0 5.0 -3.7 -9.4 72.5- 1.3 1.3---- 0.0------------
1956-11-05 5.4 8.0 0.3 -4.1 81.8- 7.7 2.7---- 0.4------------
1956-11-06 1.5 5.7 0.1 -4.8 84.0- 6.0 3.7---- 9.1------------
1956-11-07 0.4 1.3 -0.1 -0.3 93.5- 8.0 2.3---- 5.7-- 6---------
1956-11-08 -7.3 0.3-10.1 -3.6 89.0- 3.3 0.7---- 0.0-- 12---------
1956-11-09 -8.3 -0.8-13.0-18.9 87.0- 3.0 0.3---- 0.0-- 8---------
121.7 ms

 

Źródłem pochodzenia danych jest Instytut Meteorologii i Gospodarki Wodnej – Państwowy Instytut Badawczy. Dane Instytutu Meteorologii i Gospodarki Wodnej – Państwowego Instytutu Badawczego zostały przetworzone.

Dane źródłowe można odnaleźć na stronie https://dane.imgw.pl